createdAt,value
2023-06-19T00:03:03.591Z,9.61
2023-06-19T00:07:23.285Z,9.46
2023-06-19T00:11:42.122Z,9.44
2023-06-19T00:16:01.710Z,9.34
2023-06-19T00:20:19.746Z,9.22
2023-06-19T00:24:37.375Z,9.15
2023-06-19T00:28:56.201Z,9.03
2023-06-19T00:33:13.666Z,9.05
2023-06-19T00:37:34.351Z,8.94
2023-06-19T00:41:56.368Z,8.84
2023-06-19T00:46:14.020Z,8.75
2023-06-19T00:50:32.713Z,8.69
2023-06-19T00:54:50.478Z,8.68
2023-06-19T00:59:17.386Z,8.79
2023-06-19T01:03:35.867Z,8.83
2023-06-19T01:08:19.192Z,8.74
2023-06-19T01:12:44.471Z,8.72
2023-06-19T01:17:02.777Z,8.67
2023-06-19T01:21:20.996Z,8.69
2023-06-19T01:25:39.213Z,8.67
2023-06-19T01:30:02.634Z,8.75
2023-06-19T01:34:22.089Z,8.92
2023-06-19T01:38:42.660Z,8.91
2023-06-19T01:43:02.350Z,8.99
2023-06-19T01:47:23.090Z,9.02
2023-06-19T01:51:42.007Z,9.12
2023-06-19T01:56:02.747Z,9.22
2023-06-19T02:00:21.548Z,8.95
2023-06-19T02:04:39.295Z,8.87
2023-06-19T02:08:56.955Z,8.75
2023-06-19T02:13:15.151Z,8.65
2023-06-19T02:17:33.260Z,8.56
2023-06-19T02:21:51.690Z,8.57
2023-06-19T02:26:09.282Z,8.58
2023-06-19T02:30:27.594Z,8.63
2023-06-19T02:34:46.765Z,8.58
2023-06-19T02:39:08.156Z,8.57
2023-06-19T02:43:26.217Z,8.67
2023-06-19T02:47:44.604Z,8.89
2023-06-19T02:52:02.222Z,8.91
2023-06-19T02:56:21.253Z,8.89
2023-06-19T03:00:39.661Z,8.91
2023-06-19T03:04:59.028Z,8.99
2023-06-19T03:09:16.741Z,9.12
2023-06-19T03:13:53.325Z,9.18
2023-06-19T03:18:12.258Z,9.29
2023-06-19T03:22:29.922Z,9.39
2023-06-19T03:26:47.575Z,9.44
2023-06-19T03:31:05.309Z,9.55
2023-06-19T03:35:23.481Z,9.89
2023-06-19T03:39:41.657Z,10.08
2023-06-19T03:44:00.305Z,10.23
2023-06-19T03:48:18.891Z,10.36
2023-06-19T03:52:38.266Z,10.61
2023-06-19T03:56:56.319Z,10.87
2023-06-19T04:01:14.410Z,11.08
2023-06-19T04:05:31.583Z,11.20
2023-06-19T04:09:51.683Z,11.39
2023-06-19T04:14:09.245Z,11.64
2023-06-19T04:18:27.426Z,11.82
2023-06-19T04:22:46.574Z,12.12
2023-06-19T04:27:04.538Z,12.39
2023-06-19T04:31:24.111Z,12.68
2023-06-19T04:35:42.069Z,12.95
2023-06-19T04:40:00.678Z,13.26
2023-06-19T04:44:18.203Z,13.51
2023-06-19T04:48:38.301Z,13.83
2023-06-19T04:52:56.155Z,14.16
2023-06-19T04:57:13.714Z,14.40
2023-06-19T05:01:31.981Z,14.64
2023-06-19T05:05:49.749Z,14.98
2023-06-19T05:10:08.986Z,15.18
2023-06-19T05:14:26.614Z,15.46
2023-06-19T05:18:45.368Z,15.83
2023-06-19T05:23:03.684Z,16.11
2023-06-19T05:27:21.109Z,16.38
2023-06-19T05:31:38.585Z,16.66
2023-06-19T05:35:57.995Z,16.96
2023-06-19T05:40:16.665Z,17.17
2023-06-19T05:44:34.247Z,17.50
2023-06-19T05:48:52.808Z,17.87
2023-06-19T05:53:13.391Z,18.14
2023-06-19T05:57:33.333Z,18.39
2023-06-19T06:01:52.402Z,18.76
2023-06-19T06:06:10.033Z,18.90
2023-06-19T06:10:28.305Z,19.06
2023-06-19T06:14:45.989Z,19.27
2023-06-19T06:19:04.088Z,19.63
2023-06-19T06:23:22.229Z,19.93
2023-06-19T06:27:39.946Z,20.16
2023-06-19T06:32:09.112Z,20.42
2023-06-19T06:36:36.025Z,20.80
2023-06-19T06:40:54.819Z,20.85
2023-06-19T06:45:12.448Z,21.03
2023-06-19T06:49:30.518Z,21.11
2023-06-19T06:53:48.381Z,21.24
2023-06-19T06:58:06.578Z,21.76
2023-06-19T07:02:25.331Z,21.97
2023-06-19T07:06:45.029Z,22.33
2023-06-19T07:11:02.657Z,22.53
2023-06-19T07:15:21.371Z,22.47
2023-06-19T07:19:39.074Z,22.51
2023-06-19T07:23:58.622Z,22.61
2023-06-19T07:28:16.933Z,22.79
2023-06-19T07:32:34.637Z,22.67
2023-06-19T07:36:54.473Z,23.07
2023-06-19T07:41:12.416Z,23.36
2023-06-19T07:45:29.943Z,23.62
2023-06-19T07:49:48.155Z,23.67
2023-06-19T07:54:06.402Z,23.61
2023-06-19T07:58:23.916Z,23.55
2023-06-19T08:02:44.262Z,23.51
2023-06-19T08:07:01.937Z,23.85
2023-06-19T08:11:19.953Z,23.67
2023-06-19T08:15:38.024Z,23.67
2023-06-19T08:19:56.578Z,24.16
2023-06-19T08:24:14.159Z,24.02
2023-06-19T08:28:35.221Z,24.33
2023-06-19T08:32:52.962Z,24.65
2023-06-19T08:37:11.332Z,25.11
2023-06-19T08:41:29.539Z,24.59
2023-06-19T08:46:20.245Z,24.89
2023-06-19T08:50:38.721Z,24.91
2023-06-19T08:54:56.288Z,24.95
2023-06-19T08:59:20.040Z,25.71
2023-06-19T09:03:37.678Z,27.21
2023-06-19T09:08:02.904Z,27.50
2023-06-19T09:12:21.550Z,27.94
2023-06-19T09:16:44.090Z,28.28
2023-06-19T09:21:03.068Z,28.48
2023-06-19T09:25:20.935Z,28.28
2023-06-19T09:29:40.540Z,29.04
2023-06-19T09:33:58.236Z,28.91
2023-06-19T09:38:19.646Z,29.61
2023-06-19T09:42:46.178Z,30.27
2023-06-19T09:47:08.527Z,30.21
2023-06-19T09:51:34.376Z,30.67
2023-06-19T09:55:53.092Z,29.47
2023-06-19T10:00:18.470Z,30.16
2023-06-19T10:04:46.572Z,29.42
2023-06-19T10:09:10.191Z,30.90
2023-06-19T10:13:40.794Z,32.57
2023-06-19T10:18:07.067Z,30.89
2023-06-19T10:22:26.012Z,30.99
2023-06-19T10:26:43.633Z,32.36
2023-06-19T10:31:08.074Z,34.04
2023-06-19T10:35:27.175Z,31.61
2023-06-19T10:39:45.886Z,30.21
2023-06-19T10:44:14.151Z,32.81
2023-06-19T10:48:31.962Z,30.20
2023-06-19T10:52:50.217Z,28.91
2023-06-19T10:57:08.737Z,27.86
2023-06-19T11:01:54.184Z,32.67
2023-06-19T11:06:12.243Z,33.63
2023-06-19T11:10:32.482Z,34.82
2023-06-19T11:14:51.718Z,35.30
2023-06-19T11:19:16.582Z,37.09
2023-06-19T11:23:34.149Z,36.06
2023-06-19T11:27:56.912Z,38.82
2023-06-19T11:32:18.867Z,38.75
2023-06-19T11:36:43.743Z,38.45
2023-06-19T11:41:02.472Z,39.28
2023-06-19T11:45:21.642Z,40.00
2023-06-19T11:49:39.420Z,41.12
2023-06-19T11:53:59.042Z,40.71
2023-06-19T11:58:16.727Z,43.58
2023-06-19T12:02:35.138Z,38.62
2023-06-19T12:06:54.245Z,42.45
2023-06-19T12:11:12.832Z,48.06
2023-06-19T12:15:31.669Z,42.36
2023-06-19T12:19:50.050Z,41.57
2023-06-19T12:24:08.378Z,41.82
2023-06-19T12:28:26.756Z,47.41
2023-06-19T12:32:44.518Z,47.19
2023-06-19T12:37:02.947Z,47.22
2023-06-19T12:41:21.370Z,44.51
2023-06-19T12:45:41.088Z,42.19
2023-06-19T12:49:59.295Z,40.99
2023-06-19T12:54:16.824Z,44.83
2023-06-19T12:58:35.396Z,47.38
2023-06-19T13:02:53.882Z,44.59
2023-06-19T13:07:12.092Z,47.34
2023-06-19T13:11:29.982Z,51.66
2023-06-19T13:15:50.066Z,51.34
2023-06-19T13:20:09.209Z,54.97
2023-06-19T13:24:28.804Z,54.11
2023-06-19T13:28:47.192Z,53.05
2023-06-19T13:33:05.452Z,56.16
2023-06-19T13:37:25.260Z,52.80
2023-06-19T13:41:43.572Z,52.31
2023-06-19T13:46:02.240Z,57.72
2023-06-19T13:50:23.009Z,55.85
2023-06-19T13:54:40.865Z,57.89
2023-06-19T13:59:02.396Z,53.56
2023-06-19T14:03:22.013Z,54.62
2023-06-19T14:07:43.187Z,56.83
2023-06-19T14:12:02.524Z,56.86
2023-06-19T14:16:20.163Z,54.58
2023-06-19T14:20:38.663Z,55.95
2023-06-19T14:25:00.881Z,53.26
2023-06-19T14:29:20.014Z,56.22
2023-06-19T14:33:41.900Z,56.79
2023-06-19T14:37:59.518Z,53.29
2023-06-19T14:42:17.977Z,52.17
2023-06-19T14:46:41.708Z,49.60
2023-06-19T14:50:59.882Z,51.03
2023-06-19T14:55:18.054Z,52.05
2023-06-19T14:59:36.510Z,54.34
2023-06-19T15:03:54.401Z,52.40
2023-06-19T15:08:12.664Z,51.74
2023-06-19T15:12:30.419Z,50.25
2023-06-19T15:16:49.187Z,53.11
2023-06-19T15:21:08.493Z,53.60
2023-06-19T15:25:26.308Z,55.87
2023-06-19T15:29:44.080Z,56.05
2023-06-19T15:34:02.980Z,54.86
2023-06-19T15:38:22.018Z,51.41
2023-06-19T15:42:41.053Z,50.14
2023-06-19T15:46:58.692Z,51.93
2023-06-19T15:51:17.212Z,51.91
2023-06-19T15:55:34.849Z,51.14
2023-06-19T15:59:54.163Z,48.78
2023-06-19T16:04:12.351Z,48.34
2023-06-19T16:08:31.017Z,47.89
2023-06-19T16:12:51.424Z,45.27
2023-06-19T16:17:08.883Z,45.39
2023-06-19T16:21:30.220Z,44.01
2023-06-19T16:25:47.813Z,44.05
2023-06-19T16:30:07.033Z,44.72
2023-06-19T16:34:25.245Z,37.85
2023-06-19T16:38:43.532Z,41.33
2023-06-19T16:43:01.869Z,42.33
2023-06-19T16:47:19.830Z,40.41
2023-06-19T16:51:38.686Z,40.23
2023-06-19T16:55:59.640Z,40.50
2023-06-19T17:00:19.002Z,40.27
2023-06-19T17:04:39.249Z,40.31
2023-06-19T17:08:58.393Z,38.22
2023-06-19T17:13:16.382Z,36.70
2023-06-19T17:17:36.734Z,35.89
2023-06-19T17:21:54.984Z,33.07
2023-06-19T17:26:12.629Z,30.24
2023-06-19T17:30:31.046Z,30.71
2023-06-19T17:34:49.481Z,30.13
2023-06-19T17:39:08.690Z,28.94
2023-06-19T17:43:26.272Z,27.98
2023-06-19T17:47:44.717Z,26.93
2023-06-19T17:52:02.886Z,26.01
2023-06-19T17:56:22.096Z,25.33
2023-06-19T18:00:39.995Z,24.51
2023-06-19T18:04:59.722Z,23.57
2023-06-19T18:09:17.320Z,22.83
2023-06-19T18:13:35.015Z,22.13
2023-06-19T18:17:53.179Z,21.50
2023-06-19T18:22:10.687Z,20.90
2023-06-19T18:26:30.078Z,20.39
2023-06-19T18:30:48.365Z,19.96
2023-06-19T18:35:06.946Z,19.56
2023-06-19T18:39:26.177Z,19.21
2023-06-19T18:43:43.819Z,18.77
2023-06-19T18:48:01.696Z,18.38
2023-06-19T18:52:19.286Z,18.04
2023-06-19T18:56:39.124Z,17.74
2023-06-19T19:00:57.427Z,17.49
2023-06-19T19:05:17.033Z,17.28
2023-06-19T19:09:34.653Z,17.11
2023-06-19T19:13:53.043Z,16.88
2023-06-19T19:18:12.754Z,16.79
2023-06-19T19:22:31.779Z,16.59
2023-06-19T19:26:50.079Z,16.35
2023-06-19T19:31:07.759Z,16.20
2023-06-19T19:35:25.450Z,16.03
2023-06-19T19:39:43.935Z,15.93
2023-06-19T19:44:01.527Z,15.83
2023-06-19T19:48:19.459Z,15.73
2023-06-19T19:52:37.856Z,15.62
2023-06-19T19:56:56.883Z,15.50
2023-06-19T20:01:14.701Z,15.36
2023-06-19T20:05:34.308Z,15.25
2023-06-19T20:09:51.940Z,15.11
2023-06-19T20:14:10.156Z,14.98
2023-06-19T20:18:28.904Z,14.90
2023-06-19T20:22:46.988Z,14.81
2023-06-19T20:27:06.231Z,14.74
2023-06-19T20:31:24.926Z,14.57
2023-06-19T20:35:42.603Z,14.42
2023-06-19T20:40:03.573Z,14.29
2023-06-19T20:44:21.699Z,14.32
2023-06-19T20:48:40.654Z,14.33
2023-06-19T20:52:58.772Z,14.42
2023-06-19T20:57:16.544Z,14.39
2023-06-19T21:01:36.578Z,14.37
2023-06-19T21:05:57.725Z,14.32
2023-06-19T21:10:15.642Z,14.24
2023-06-19T21:14:34.804Z,14.12
2023-06-19T21:18:52.559Z,14.14
2023-06-19T21:23:10.106Z,14.22
2023-06-19T21:27:28.679Z,14.46
2023-06-19T21:31:47.239Z,14.44
2023-06-19T21:36:05.970Z,14.32
2023-06-19T21:40:23.916Z,14.21
2023-06-19T21:44:44.626Z,14.04
2023-06-19T21:49:05.295Z,13.93
2023-06-19T21:53:23.854Z,13.78
2023-06-19T22:02:04.846Z,13.64
2023-06-19T22:06:22.851Z,13.57
2023-06-19T22:10:40.845Z,13.47
2023-06-19T22:14:58.688Z,13.43
2023-06-19T22:19:16.263Z,13.44
2023-06-19T22:23:35.024Z,13.36
2023-06-19T22:27:55.650Z,13.26
2023-06-19T22:32:15.085Z,13.30
2023-06-19T22:36:32.692Z,13.40
2023-06-19T22:40:50.111Z,13.39
2023-06-19T22:45:09.410Z,13.38
2023-06-19T22:49:30.484Z,13.25
2023-06-19T22:53:49.889Z,13.15
2023-06-19T22:58:07.453Z,13.09
2023-06-19T23:02:25.267Z,13.08
2023-06-19T23:06:44.651Z,13.05
2023-06-19T23:11:02.727Z,13.09
2023-06-19T23:15:20.311Z,13.07
2023-06-19T23:19:37.940Z,13.02
2023-06-19T23:23:57.140Z,12.98
2023-06-19T23:28:15.146Z,12.87
2023-06-19T23:32:32.817Z,12.80
2023-06-19T23:36:53.591Z,12.75
2023-06-19T23:41:12.896Z,12.78
2023-06-19T23:45:30.463Z,12.75
2023-06-19T23:49:49.785Z,12.68
2023-06-19T23:54:07.502Z,12.67
2023-06-19T23:58:25.603Z,12.63
